sensor_id;sensor_type;location;lat;lon;timestamp;P1;durP1;ratioP1;P2;durP2;ratioP2
65835;SDS011;52595;51.608;7.216;2023-07-29T00:00:38;10.32;;;6.25;;
65835;SDS011;52595;51.608;7.216;2023-07-29T00:03:04;8.77;;;6.13;;
65835;SDS011;52595;51.608;7.216;2023-07-29T00:05:30;9.18;;;5.90;;
65835;SDS011;52595;51.608;7.216;2023-07-29T00:07:55;7.40;;;5.47;;
65835;SDS011;52595;51.608;7.216;2023-07-29T00:10:21;8.35;;;6.28;;
65835;SDS011;52595;51.608;7.216;2023-07-29T00:12:46;10.10;;;5.85;;
65835;SDS011;52595;51.608;7.216;2023-07-29T00:15:11;10.13;;;6.78;;
65835;SDS011;52595;51.608;7.216;2023-07-29T00:17:37;9.80;;;6.00;;
65835;SDS011;52595;51.608;7.216;2023-07-29T00:20:02;8.52;;;6.25;;
65835;SDS011;52595;51.608;7.216;2023-07-29T00:22:28;9.68;;;6.15;;
65835;SDS011;52595;51.608;7.216;2023-07-29T00:24:54;11.23;;;6.10;;
65835;SDS011;52595;51.608;7.216;2023-07-29T00:27:20;12.45;;;6.40;;
65835;SDS011;52595;51.608;7.216;2023-07-29T00:29:46;7.57;;;6.30;;
65835;SDS011;52595;51.608;7.216;2023-07-29T00:32:12;8.25;;;6.15;;
65835;SDS011;52595;51.608;7.216;2023-07-29T00:34:37;8.80;;;5.85;;
65835;SDS011;52595;51.608;7.216;2023-07-29T00:37:05;8.95;;;6.47;;
65835;SDS011;52595;51.608;7.216;2023-07-29T00:39:31;8.30;;;5.82;;
65835;SDS011;52595;51.608;7.216;2023-07-29T00:41:59;9.05;;;6.40;;
65835;SDS011;52595;51.608;7.216;2023-07-29T00:44:25;7.47;;;5.57;;
65835;SDS011;52595;51.608;7.216;2023-07-29T00:46:52;8.30;;;5.78;;
65835;SDS011;52595;51.608;7.216;2023-07-29T00:49:18;7.88;;;5.82;;
65835;SDS011;52595;51.608;7.216;2023-07-29T00:51:47;8.63;;;5.30;;
65835;SDS011;52595;51.608;7.216;2023-07-29T00:54:13;6.85;;;5.35;;
65835;SDS011;52595;51.608;7.216;2023-07-29T00:56:38;7.80;;;5.45;;
65835;SDS011;52595;51.608;7.216;2023-07-29T00:59:04;10.20;;;5.72;;
65835;SDS011;52595;51.608;7.216;2023-07-29T01:01:30;8.60;;;5.65;;
65835;SDS011;52595;51.608;7.216;2023-07-29T01:03:56;8.05;;;5.35;;
65835;SDS011;52595;51.608;7.216;2023-07-29T01:06:25;8.27;;;5.93;;
65835;SDS011;52595;51.608;7.216;2023-07-29T01:09:04;8.50;;;6.00;;
65835;SDS011;52595;51.608;7.216;2023-07-29T01:16:47;9.15;;;6.60;;
65835;SDS011;52595;51.608;7.216;2023-07-29T01:22:06;8.98;;;6.50;;
65835;SDS011;52595;51.608;7.216;2023-07-29T01:24:33;8.43;;;6.50;;
65835;SDS011;52595;51.608;7.216;2023-07-29T01:26:58;9.02;;;6.60;;
65835;SDS011;52595;51.608;7.216;2023-07-29T01:29:23;10.02;;;6.85;;
65835;SDS011;52595;51.608;7.216;2023-07-29T01:31:49;10.93;;;7.18;;
65835;SDS011;52595;51.608;7.216;2023-07-29T01:34:29;10.52;;;6.90;;
65835;SDS011;52595;51.608;7.216;2023-07-29T01:37:00;11.77;;;6.97;;
65835;SDS011;52595;51.608;7.216;2023-07-29T01:39:30;8.75;;;6.45;;
65835;SDS011;52595;51.608;7.216;2023-07-29T01:41:58;11.68;;;6.90;;
65835;SDS011;52595;51.608;7.216;2023-07-29T01:44:24;9.93;;;7.20;;
65835;SDS011;52595;51.608;7.216;2023-07-29T01:46:50;9.30;;;7.25;;
65835;SDS011;52595;51.608;7.216;2023-07-29T01:49:15;9.10;;;7.13;;
65835;SDS011;52595;51.608;7.216;2023-07-29T01:51:41;10.57;;;7.22;;
65835;SDS011;52595;51.608;7.216;2023-07-29T01:54:06;11.05;;;7.35;;
65835;SDS011;52595;51.608;7.216;2023-07-29T01:56:31;9.95;;;7.63;;
65835;SDS011;52595;51.608;7.216;2023-07-29T01:58:57;9.52;;;6.68;;
65835;SDS011;52595;51.608;7.216;2023-07-29T02:01:22;12.52;;;7.07;;
65835;SDS011;52595;51.608;7.216;2023-07-29T02:03:48;14.13;;;7.78;;
65835;SDS011;52595;51.608;7.216;2023-07-29T02:06:19;11.98;;;7.47;;
65835;SDS011;52595;51.608;7.216;2023-07-29T02:08:45;11.60;;;7.65;;
65835;SDS011;52595;51.608;7.216;2023-07-29T02:11:10;9.57;;;7.03;;
65835;SDS011;52595;51.608;7.216;2023-07-29T02:13:35;14.10;;;7.70;;
65835;SDS011;52595;51.608;7.216;2023-07-29T02:16:01;10.45;;;7.32;;
65835;SDS011;52595;51.608;7.216;2023-07-29T02:18:26;8.70;;;6.97;;
65835;SDS011;52595;51.608;7.216;2023-07-29T02:20:52;11.77;;;7.93;;
65835;SDS011;52595;51.608;7.216;2023-07-29T02:23:17;10.55;;;7.78;;
65835;SDS011;52595;51.608;7.216;2023-07-29T02:25:42;11.10;;;7.25;;
65835;SDS011;52595;51.608;7.216;2023-07-29T02:28:08;12.65;;;7.80;;
65835;SDS011;52595;51.608;7.216;2023-07-29T02:30:33;11.75;;;7.20;;
65835;SDS011;52595;51.608;7.216;2023-07-29T02:32:59;13.15;;;7.97;;
65835;SDS011;52595;51.608;7.216;2023-07-29T02:35:26;12.02;;;7.57;;
65835;SDS011;52595;51.608;7.216;2023-07-29T02:37:52;10.82;;;7.40;;
65835;SDS011;52595;51.608;7.216;2023-07-29T02:40:17;10.73;;;7.43;;
65835;SDS011;52595;51.608;7.216;2023-07-29T02:42:42;10.85;;;7.68;;
65835;SDS011;52595;51.608;7.216;2023-07-29T02:45:08;10.82;;;7.05;;
65835;SDS011;52595;51.608;7.216;2023-07-29T02:47:36;10.85;;;7.47;;
65835;SDS011;52595;51.608;7.216;2023-07-29T02:50:02;10.95;;;7.55;;
65835;SDS011;52595;51.608;7.216;2023-07-29T02:52:27;13.07;;;8.27;;
65835;SDS011;52595;51.608;7.216;2023-07-29T02:54:53;11.00;;;7.60;;
65835;SDS011;52595;51.608;7.216;2023-07-29T02:57:18;12.80;;;8.77;;
65835;SDS011;52595;51.608;7.216;2023-07-29T02:59:43;11.48;;;7.72;;
65835;SDS011;52595;51.608;7.216;2023-07-29T03:02:09;13.25;;;7.90;;
65835;SDS011;52595;51.608;7.216;2023-07-29T03:04:34;14.13;;;8.05;;
65835;SDS011;52595;51.608;7.216;2023-07-29T03:07:00;11.18;;;7.10;;
65835;SDS011;52595;51.608;7.216;2023-07-29T03:09:26;11.40;;;7.60;;
65835;SDS011;52595;51.608;7.216;2023-07-29T03:11:51;11.77;;;7.63;;
65835;SDS011;52595;51.608;7.216;2023-07-29T03:14:17;11.77;;;7.55;;
65835;SDS011;52595;51.608;7.216;2023-07-29T03:16:43;11.30;;;7.95;;
65835;SDS011;52595;51.608;7.216;2023-07-29T03:19:08;9.88;;;7.13;;
65835;SDS011;52595;51.608;7.216;2023-07-29T03:21:34;11.80;;;7.57;;
65835;SDS011;52595;51.608;7.216;2023-07-29T03:23:59;12.05;;;7.63;;
65835;SDS011;52595;51.608;7.216;2023-07-29T03:26:28;13.27;;;7.20;;
65835;SDS011;52595;51.608;7.216;2023-07-29T03:28:53;9.90;;;6.80;;
65835;SDS011;52595;51.608;7.216;2023-07-29T03:31:19;9.95;;;6.88;;
65835;SDS011;52595;51.608;7.216;2023-07-29T03:33:44;11.25;;;6.45;;
65835;SDS011;52595;51.608;7.216;2023-07-29T03:36:10;9.32;;;6.20;;
65835;SDS011;52595;51.608;7.216;2023-07-29T03:38:35;8.80;;;6.40;;
65835;SDS011;52595;51.608;7.216;2023-07-29T03:41:04;10.35;;;6.43;;
65835;SDS011;52595;51.608;7.216;2023-07-29T03:43:30;11.05;;;7.05;;
65835;SDS011;52595;51.608;7.216;2023-07-29T03:45:56;9.85;;;6.63;;
65835;SDS011;52595;51.608;7.216;2023-07-29T03:48:21;9.95;;;6.32;;
65835;SDS011;52595;51.608;7.216;2023-07-29T03:50:47;9.20;;;6.30;;
65835;SDS011;52595;51.608;7.216;2023-07-29T03:53:12;7.82;;;6.03;;
65835;SDS011;52595;51.608;7.216;2023-07-29T03:55:37;10.77;;;6.53;;
65835;SDS011;52595;51.608;7.216;2023-07-29T03:58:03;12.45;;;6.70;;
65835;SDS011;52595;51.608;7.216;2023-07-29T04:00:28;10.68;;;6.90;;
65835;SDS011;52595;51.608;7.216;2023-07-29T04:02:54;12.52;;;6.63;;
65835;SDS011;52595;51.608;7.216;2023-07-29T04:05:19;7.88;;;6.22;;
65835;SDS011;52595;51.608;7.216;2023-07-29T04:07:45;9.15;;;6.40;;
65835;SDS011;52595;51.608;7.216;2023-07-29T04:10:10;9.73;;;6.28;;
65835;SDS011;52595;51.608;7.216;2023-07-29T04:12:36;11.70;;;6.95;;
65835;SDS011;52595;51.608;7.216;2023-07-29T04:15:02;10.30;;;7.15;;
65835;SDS011;52595;51.608;7.216;2023-07-29T04:17:28;10.43;;;7.47;;
65835;SDS011;52595;51.608;7.216;2023-07-29T04:19:53;13.57;;;7.60;;
65835;SDS011;52595;51.608;7.216;2023-07-29T04:22:19;10.40;;;7.22;;
65835;SDS011;52595;51.608;7.216;2023-07-29T04:24:44;11.35;;;7.60;;
65835;SDS011;52595;51.608;7.216;2023-07-29T04:27:09;12.80;;;8.32;;
65835;SDS011;52595;51.608;7.216;2023-07-29T04:29:35;16.95;;;8.82;;
65835;SDS011;52595;51.608;7.216;2023-07-29T04:32:01;12.32;;;8.63;;
65835;SDS011;52595;51.608;7.216;2023-07-29T04:34:29;13.25;;;9.00;;
65835;SDS011;52595;51.608;7.216;2023-07-29T04:36:55;12.93;;;8.93;;
65835;SDS011;52595;51.608;7.216;2023-07-29T04:39:20;12.70;;;8.93;;
65835;SDS011;52595;51.608;7.216;2023-07-29T04:41:46;13.45;;;9.52;;
65835;SDS011;52595;51.608;7.216;2023-07-29T04:44:11;14.65;;;9.80;;
65835;SDS011;52595;51.608;7.216;2023-07-29T04:46:37;16.15;;;9.95;;
65835;SDS011;52595;51.608;7.216;2023-07-29T04:49:03;12.55;;;9.57;;
65835;SDS011;52595;51.608;7.216;2023-07-29T04:51:29;13.38;;;9.85;;
65835;SDS011;52595;51.608;7.216;2023-07-29T04:53:54;14.05;;;10.07;;
65835;SDS011;52595;51.608;7.216;2023-07-29T04:56:20;14.48;;;9.60;;
65835;SDS011;52595;51.608;7.216;2023-07-29T04:58:45;14.27;;;9.20;;
65835;SDS011;52595;51.608;7.216;2023-07-29T05:01:10;11.93;;;8.63;;
65835;SDS011;52595;51.608;7.216;2023-07-29T05:03:36;11.35;;;7.57;;
65835;SDS011;52595;51.608;7.216;2023-07-29T05:06:02;9.20;;;6.60;;
65835;SDS011;52595;51.608;7.216;2023-07-29T05:08:27;8.63;;;5.50;;
65835;SDS011;52595;51.608;7.216;2023-07-29T05:10:53;10.07;;;4.80;;
65835;SDS011;52595;51.608;7.216;2023-07-29T05:13:22;6.90;;;4.32;;
65835;SDS011;52595;51.608;7.216;2023-07-29T05:15:48;7.32;;;4.47;;
65835;SDS011;52595;51.608;7.216;2023-07-29T05:18:17;10.23;;;4.90;;
65835;SDS011;52595;51.608;7.216;2023-07-29T05:20:43;8.65;;;4.88;;
65835;SDS011;52595;51.608;7.216;2023-07-29T05:23:08;9.18;;;5.32;;
65835;SDS011;52595;51.608;7.216;2023-07-29T05:25:34;7.68;;;5.43;;
65835;SDS011;52595;51.608;7.216;2023-07-29T05:28:02;9.25;;;6.35;;
65835;SDS011;52595;51.608;7.216;2023-07-29T05:30:28;9.05;;;6.50;;
65835;SDS011;52595;51.608;7.216;2023-07-29T05:32:56;9.43;;;6.82;;
65835;SDS011;52595;51.608;7.216;2023-07-29T05:35:22;9.57;;;6.60;;
65835;SDS011;52595;51.608;7.216;2023-07-29T05:37:47;9.70;;;6.28;;
65835;SDS011;52595;51.608;7.216;2023-07-29T05:40:13;10.90;;;6.82;;
65835;SDS011;52595;51.608;7.216;2023-07-29T05:42:38;9.07;;;6.55;;
65835;SDS011;52595;51.608;7.216;2023-07-29T05:45:04;11.70;;;6.43;;
65835;SDS011;52595;51.608;7.216;2023-07-29T05:47:29;10.07;;;6.90;;
65835;SDS011;52595;51.608;7.216;2023-07-29T05:49:55;12.75;;;7.45;;
65835;SDS011;52595;51.608;7.216;2023-07-29T05:52:20;10.18;;;7.03;;
65835;SDS011;52595;51.608;7.216;2023-07-29T05:54:45;9.07;;;6.00;;
65835;SDS011;52595;51.608;7.216;2023-07-29T05:57:11;9.02;;;5.85;;
65835;SDS011;52595;51.608;7.216;2023-07-29T05:59:39;7.55;;;4.95;;
65835;SDS011;52595;51.608;7.216;2023-07-29T06:02:04;9.38;;;4.82;;
65835;SDS011;52595;51.608;7.216;2023-07-29T06:04:30;5.22;;;3.70;;
65835;SDS011;52595;51.608;7.216;2023-07-29T06:06:56;5.93;;;3.60;;
65835;SDS011;52595;51.608;7.216;2023-07-29T06:09:22;6.43;;;3.33;;
65835;SDS011;52595;51.608;7.216;2023-07-29T06:11:47;7.07;;;3.38;;
65835;SDS011;52595;51.608;7.216;2023-07-29T06:14:13;3.67;;;3.00;;
65835;SDS011;52595;51.608;7.216;2023-07-29T06:16:38;5.20;;;2.92;;
65835;SDS011;52595;51.608;7.216;2023-07-29T06:19:07;4.28;;;2.78;;
65835;SDS011;52595;51.608;7.216;2023-07-29T06:21:33;6.95;;;2.90;;
65835;SDS011;52595;51.608;7.216;2023-07-29T06:23:59;4.78;;;2.88;;
65835;SDS011;52595;51.608;7.216;2023-07-29T06:26:25;4.10;;;2.70;;
65835;SDS011;52595;51.608;7.216;2023-07-29T06:28:50;3.97;;;3.03;;
65835;SDS011;52595;51.608;7.216;2023-07-29T06:31:15;5.15;;;2.50;;
65835;SDS011;52595;51.608;7.216;2023-07-29T06:33:41;2.92;;;2.20;;
65835;SDS011;52595;51.608;7.216;2023-07-29T06:36:06;3.67;;;2.28;;
65835;SDS011;52595;51.608;7.216;2023-07-29T06:38:32;3.80;;;2.40;;
65835;SDS011;52595;51.608;7.216;2023-07-29T06:40:57;5.47;;;2.30;;
65835;SDS011;52595;51.608;7.216;2023-07-29T06:43:22;3.90;;;2.20;;
65835;SDS011;52595;51.608;7.216;2023-07-29T06:45:48;3.05;;;1.92;;
65835;SDS011;52595;51.608;7.216;2023-07-29T06:48:13;4.03;;;2.30;;
65835;SDS011;52595;51.608;7.216;2023-07-29T06:50:39;3.85;;;2.17;;
65835;SDS011;52595;51.608;7.216;2023-07-29T06:53:04;3.72;;;2.15;;
65835;SDS011;52595;51.608;7.216;2023-07-29T06:55:30;4.10;;;2.10;;
65835;SDS011;52595;51.608;7.216;2023-07-29T06:57:55;4.80;;;2.40;;
65835;SDS011;52595;51.608;7.216;2023-07-29T07:00:21;4.40;;;2.30;;
65835;SDS011;52595;51.608;7.216;2023-07-29T07:02:46;5.78;;;2.28;;
65835;SDS011;52595;51.608;7.216;2023-07-29T07:05:11;2.92;;;2.20;;
65835;SDS011;52595;51.608;7.216;2023-07-29T07:07:37;3.38;;;2.10;;
65835;SDS011;52595;51.608;7.216;2023-07-29T07:10:03;4.72;;;2.50;;
65835;SDS011;52595;51.608;7.216;2023-07-29T07:12:28;3.10;;;2.22;;
65835;SDS011;52595;51.608;7.216;2023-07-29T07:14:54;3.35;;;2.03;;
65835;SDS011;52595;51.608;7.216;2023-07-29T07:17:19;3.00;;;1.92;;
65835;SDS011;52595;51.608;7.216;2023-07-29T07:19:44;4.63;;;2.00;;
65835;SDS011;52595;51.608;7.216;2023-07-29T07:22:11;3.42;;;2.15;;
65835;SDS011;52595;51.608;7.216;2023-07-29T07:24:36;4.38;;;2.40;;
65835;SDS011;52595;51.608;7.216;2023-07-29T07:27:02;5.40;;;2.30;;
65835;SDS011;52595;51.608;7.216;2023-07-29T07:29:28;4.45;;;2.30;;
65835;SDS011;52595;51.608;7.216;2023-07-29T07:31:53;4.78;;;2.28;;
65835;SDS011;52595;51.608;7.216;2023-07-29T07:34:19;7.38;;;2.50;;
65835;SDS011;52595;51.608;7.216;2023-07-29T07:36:45;6.07;;;2.38;;
65835;SDS011;52595;51.608;7.216;2023-07-29T07:39:11;4.18;;;2.40;;
65835;SDS011;52595;51.608;7.216;2023-07-29T07:41:36;8.18;;;2.55;;
65835;SDS011;52595;51.608;7.216;2023-07-29T07:44:02;7.07;;;2.63;;
65835;SDS011;52595;51.608;7.216;2023-07-29T07:46:28;4.90;;;2.78;;
65835;SDS011;52595;51.608;7.216;2023-07-29T07:48:53;5.50;;;2.40;;
65835;SDS011;52595;51.608;7.216;2023-07-29T07:51:19;6.30;;;2.55;;
65835;SDS011;52595;51.608;7.216;2023-07-29T07:53:44;4.68;;;2.55;;
65835;SDS011;52595;51.608;7.216;2023-07-29T07:56:10;4.60;;;2.50;;
65835;SDS011;52595;51.608;7.216;2023-07-29T07:58:35;4.47;;;2.80;;
65835;SDS011;52595;51.608;7.216;2023-07-29T08:01:04;5.28;;;2.60;;
65835;SDS011;52595;51.608;7.216;2023-07-29T08:03:30;4.28;;;2.50;;
65835;SDS011;52595;51.608;7.216;2023-07-29T08:05:56;6.65;;;2.22;;
65835;SDS011;52595;51.608;7.216;2023-07-29T08:08:21;4.45;;;2.53;;
65835;SDS011;52595;51.608;7.216;2023-07-29T08:10:46;3.80;;;2.55;;
65835;SDS011;52595;51.608;7.216;2023-07-29T08:13:12;4.57;;;2.72;;
65835;SDS011;52595;51.608;7.216;2023-07-29T08:15:37;6.03;;;2.72;;
65835;SDS011;52595;51.608;7.216;2023-07-29T08:18:02;4.35;;;2.40;;
65835;SDS011;52595;51.608;7.216;2023-07-29T08:20:28;4.60;;;3.00;;
65835;SDS011;52595;51.608;7.216;2023-07-29T08:22:53;5.72;;;3.10;;
65835;SDS011;52595;51.608;7.216;2023-07-29T08:25:19;6.15;;;3.10;;
65835;SDS011;52595;51.608;7.216;2023-07-29T08:27:44;5.13;;;3.03;;
65835;SDS011;52595;51.608;7.216;2023-07-29T08:30:09;5.70;;;3.00;;
65835;SDS011;52595;51.608;7.216;2023-07-29T08:32:35;5.03;;;2.88;;
65835;SDS011;52595;51.608;7.216;2023-07-29T08:35:00;8.68;;;2.65;;
65835;SDS011;52595;51.608;7.216;2023-07-29T08:37:26;4.10;;;2.30;;
65835;SDS011;52595;51.608;7.216;2023-07-29T08:39:52;4.50;;;2.20;;
65835;SDS011;52595;51.608;7.216;2023-07-29T08:42:19;2.70;;;1.85;;
65835;SDS011;52595;51.608;7.216;2023-07-29T08:44:44;3.15;;;2.00;;
65835;SDS011;52595;51.608;7.216;2023-07-29T08:47:11;2.85;;;1.80;;
65835;SDS011;52595;51.608;7.216;2023-07-29T08:49:38;2.70;;;1.80;;
65835;SDS011;52595;51.608;7.216;2023-07-29T08:52:04;3.08;;;1.90;;
65835;SDS011;52595;51.608;7.216;2023-07-29T08:54:29;3.33;;;1.80;;
65835;SDS011;52595;51.608;7.216;2023-07-29T08:56:55;2.17;;;1.65;;
65835;SDS011;52595;51.608;7.216;2023-07-29T08:59:21;3.28;;;1.80;;
65835;SDS011;52595;51.608;7.216;2023-07-29T09:01:47;2.63;;;1.60;;
65835;SDS011;52595;51.608;7.216;2023-07-29T09:04:12;3.92;;;1.65;;
65835;SDS011;52595;51.608;7.216;2023-07-29T09:06:39;2.55;;;1.50;;
65835;SDS011;52595;51.608;7.216;2023-07-29T09:09:05;2.28;;;1.45;;
65835;SDS011;52595;51.608;7.216;2023-07-29T09:11:32;2.90;;;1.45;;
65835;SDS011;52595;51.608;7.216;2023-07-29T09:13:58;2.45;;;1.60;;
65835;SDS011;52595;51.608;7.216;2023-07-29T09:16:24;2.33;;;1.50;;
65835;SDS011;52595;51.608;7.216;2023-07-29T09:18:50;2.22;;;1.40;;
65835;SDS011;52595;51.608;7.216;2023-07-29T09:21:23;1.40;;;1.20;;
65835;SDS011;52595;51.608;7.216;2023-07-29T09:23:53;1.60;;;1.40;;
65835;SDS011;52595;51.608;7.216;2023-07-29T09:26:23;3.22;;;1.40;;
65835;SDS011;52595;51.608;7.216;2023-07-29T09:28:51;1.85;;;1.30;;
65835;SDS011;52595;51.608;7.216;2023-07-29T09:31:19;2.20;;;1.50;;
65835;SDS011;52595;51.608;7.216;2023-07-29T09:33:45;1.58;;;1.33;;
65835;SDS011;52595;51.608;7.216;2023-07-29T09:36:11;1.60;;;1.40;;
65835;SDS011;52595;51.608;7.216;2023-07-29T09:38:36;2.72;;;2.08;;
65835;SDS011;52595;51.608;7.216;2023-07-29T09:41:02;2.88;;;1.50;;
65835;SDS011;52595;51.608;7.216;2023-07-29T09:43:31;3.53;;;1.40;;
65835;SDS011;52595;51.608;7.216;2023-07-29T09:48:35;1.98;;;1.65;;
65835;SDS011;52595;51.608;7.216;2023-07-29T09:51:10;2.13;;;1.77;;
65835;SDS011;52595;51.608;7.216;2023-07-29T09:53:43;1.88;;;1.67;;
65835;SDS011;52595;51.608;7.216;2023-07-29T09:58:35;3.83;;;1.90;;
65835;SDS011;52595;51.608;7.216;2023-07-29T10:01:03;2.15;;;1.90;;
65835;SDS011;52595;51.608;7.216;2023-07-29T10:03:32;2.30;;;1.80;;
65835;SDS011;52595;51.608;7.216;2023-07-29T10:06:00;12.15;;;2.00;;
65835;SDS011;52595;51.608;7.216;2023-07-29T10:08:28;2.13;;;1.90;;
65835;SDS011;52595;51.608;7.216;2023-07-29T10:10:56;2.83;;;2.15;;
65835;SDS011;52595;51.608;7.216;2023-07-29T10:13:24;2.90;;;2.22;;
65835;SDS011;52595;51.608;7.216;2023-07-29T10:15:51;4.57;;;2.38;;
65835;SDS011;52595;51.608;7.216;2023-07-29T10:18:18;3.83;;;2.40;;
65835;SDS011;52595;51.608;7.216;2023-07-29T10:20:44;2.92;;;2.10;;
65835;SDS011;52595;51.608;7.216;2023-07-29T10:23:11;2.42;;;1.95;;
65835;SDS011;52595;51.608;7.216;2023-07-29T10:25:39;4.40;;;2.10;;
65835;SDS011;52595;51.608;7.216;2023-07-29T10:28:11;3.42;;;2.17;;
65835;SDS011;52595;51.608;7.216;2023-07-29T10:30:37;3.72;;;2.22;;
65835;SDS011;52595;51.608;7.216;2023-07-29T10:33:04;2.63;;;2.00;;
65835;SDS011;52595;51.608;7.216;2023-07-29T10:35:32;3.17;;;2.15;;
65835;SDS011;52595;51.608;7.216;2023-07-29T10:37:58;4.38;;;2.25;;
65835;SDS011;52595;51.608;7.216;2023-07-29T10:40:24;4.13;;;2.90;;
65835;SDS011;52595;51.608;7.216;2023-07-29T10:45:51;4.88;;;3.20;;
65835;SDS011;52595;51.608;7.216;2023-07-29T10:48:52;4.15;;;2.80;;
65835;SDS011;52595;51.608;7.216;2023-07-29T10:54:00;3.30;;;2.50;;
65835;SDS011;52595;51.608;7.216;2023-07-29T10:58:57;3.08;;;2.47;;
65835;SDS011;52595;51.608;7.216;2023-07-29T11:01:30;3.95;;;2.42;;
65835;SDS011;52595;51.608;7.216;2023-07-29T11:09:42;3.97;;;2.90;;
65835;SDS011;52595;51.608;7.216;2023-07-29T11:15:21;3.83;;;2.60;;
65835;SDS011;52595;51.608;7.216;2023-07-29T11:20:29;3.20;;;2.15;;
65835;SDS011;52595;51.608;7.216;2023-07-29T11:22:57;4.05;;;2.42;;
65835;SDS011;52595;51.608;7.216;2023-07-29T11:25:25;3.85;;;2.45;;
65835;SDS011;52595;51.608;7.216;2023-07-29T11:27:52;3.60;;;2.13;;
65835;SDS011;52595;51.608;7.216;2023-07-29T11:30:19;2.35;;;1.80;;
65835;SDS011;52595;51.608;7.216;2023-07-29T11:32:45;2.45;;;1.60;;
65835;SDS011;52595;51.608;7.216;2023-07-29T11:35:15;2.00;;;1.70;;
65835;SDS011;52595;51.608;7.216;2023-07-29T11:37:43;2.38;;;1.77;;
65835;SDS011;52595;51.608;7.216;2023-07-29T11:40:12;3.35;;;1.92;;
65835;SDS011;52595;51.608;7.216;2023-07-29T11:42:40;3.53;;;2.08;;
65835;SDS011;52595;51.608;7.216;2023-07-29T11:45:06;1.83;;;1.58;;
65835;SDS011;52595;51.608;7.216;2023-07-29T11:47:32;2.47;;;1.90;;
65835;SDS011;52595;51.608;7.216;2023-07-29T11:50:02;1.98;;;1.77;;
65835;SDS011;52595;51.608;7.216;2023-07-29T11:52:44;2.67;;;1.88;;
65835;SDS011;52595;51.608;7.216;2023-07-29T11:57:37;2.70;;;1.98;;
65835;SDS011;52595;51.608;7.216;2023-07-29T12:00:03;4.00;;;2.08;;
65835;SDS011;52595;51.608;7.216;2023-07-29T12:02:31;2.80;;;2.00;;
65835;SDS011;52595;51.608;7.216;2023-07-29T12:04:57;3.88;;;2.17;;
65835;SDS011;52595;51.608;7.216;2023-07-29T12:07:23;4.97;;;2.45;;
65835;SDS011;52595;51.608;7.216;2023-07-29T12:09:52;3.67;;;2.10;;
65835;SDS011;52595;51.608;7.216;2023-07-29T12:12:17;2.70;;;2.00;;
65835;SDS011;52595;51.608;7.216;2023-07-29T12:14:43;3.63;;;2.30;;
65835;SDS011;52595;51.608;7.216;2023-07-29T12:17:10;2.17;;;1.98;;
65835;SDS011;52595;51.608;7.216;2023-07-29T12:19:37;2.20;;;1.88;;
65835;SDS011;52595;51.608;7.216;2023-07-29T12:22:05;3.28;;;2.00;;
65835;SDS011;52595;51.608;7.216;2023-07-29T12:24:32;3.50;;;1.90;;
65835;SDS011;52595;51.608;7.216;2023-07-29T12:27:00;3.22;;;1.83;;
65835;SDS011;52595;51.608;7.216;2023-07-29T12:29:26;2.53;;;1.80;;
65835;SDS011;52595;51.608;7.216;2023-07-29T12:32:02;3.15;;;1.80;;
65835;SDS011;52595;51.608;7.216;2023-07-29T12:34:29;4.95;;;1.90;;
65835;SDS011;52595;51.608;7.216;2023-07-29T12:36:57;2.42;;;1.80;;
65835;SDS011;52595;51.608;7.216;2023-07-29T12:39:26;3.63;;;1.80;;
65835;SDS011;52595;51.608;7.216;2023-07-29T12:41:54;3.77;;;1.87;;
65835;SDS011;52595;51.608;7.216;2023-07-29T12:44:22;1.98;;;1.60;;
65835;SDS011;52595;51.608;7.216;2023-07-29T12:46:48;2.55;;;1.70;;
65835;SDS011;52595;51.608;7.216;2023-07-29T12:49:14;2.78;;;1.83;;
65835;SDS011;52595;51.608;7.216;2023-07-29T12:51:39;2.90;;;1.80;;
65835;SDS011;52595;51.608;7.216;2023-07-29T12:54:05;3.28;;;1.90;;
65835;SDS011;52595;51.608;7.216;2023-07-29T12:56:31;2.47;;;1.85;;
65835;SDS011;52595;51.608;7.216;2023-07-29T12:58:57;2.53;;;1.63;;
65835;SDS011;52595;51.608;7.216;2023-07-29T13:01:23;2.65;;;1.80;;
65835;SDS011;52595;51.608;7.216;2023-07-29T13:03:49;2.83;;;1.80;;
65835;SDS011;52595;51.608;7.216;2023-07-29T13:06:15;3.55;;;1.90;;
65835;SDS011;52595;51.608;7.216;2023-07-29T13:08:41;2.88;;;2.10;;
65835;SDS011;52595;51.608;7.216;2023-07-29T13:11:06;3.38;;;2.30;;
65835;SDS011;52595;51.608;7.216;2023-07-29T13:13:32;3.15;;;2.28;;
65835;SDS011;52595;51.608;7.216;2023-07-29T13:15:57;2.80;;;2.03;;
65835;SDS011;52595;51.608;7.216;2023-07-29T13:18:23;2.88;;;2.00;;
65835;SDS011;52595;51.608;7.216;2023-07-29T13:20:48;2.65;;;1.90;;
65835;SDS011;52595;51.608;7.216;2023-07-29T13:23:14;2.30;;;1.77;;
65835;SDS011;52595;51.608;7.216;2023-07-29T13:25:40;3.15;;;1.90;;
65835;SDS011;52595;51.608;7.216;2023-07-29T13:28:06;2.40;;;1.70;;
65835;SDS011;52595;51.608;7.216;2023-07-29T13:30:32;3.40;;;1.90;;
65835;SDS011;52595;51.608;7.216;2023-07-29T13:32:58;4.18;;;1.83;;
65835;SDS011;52595;51.608;7.216;2023-07-29T13:35:24;2.78;;;1.90;;
65835;SDS011;52595;51.608;7.216;2023-07-29T13:37:49;3.17;;;1.90;;
65835;SDS011;52595;51.608;7.216;2023-07-29T13:40:14;2.55;;;1.92;;
65835;SDS011;52595;51.608;7.216;2023-07-29T13:42:40;3.10;;;1.80;;
65835;SDS011;52595;51.608;7.216;2023-07-29T13:45:05;3.65;;;1.90;;
65835;SDS011;52595;51.608;7.216;2023-07-29T13:47:31;4.25;;;1.98;;
65835;SDS011;52595;51.608;7.216;2023-07-29T13:50:00;3.33;;;2.05;;
65835;SDS011;52595;51.608;7.216;2023-07-29T13:52:25;2.80;;;2.10;;
65835;SDS011;52595;51.608;7.216;2023-07-29T13:54:51;3.78;;;1.92;;
65835;SDS011;52595;51.608;7.216;2023-07-29T13:57:16;6.47;;;1.73;;
65835;SDS011;52595;51.608;7.216;2023-07-29T13:59:42;3.97;;;2.00;;
65835;SDS011;52595;51.608;7.216;2023-07-29T14:02:07;3.25;;;2.10;;
65835;SDS011;52595;51.608;7.216;2023-07-29T14:04:33;2.80;;;2.03;;
65835;SDS011;52595;51.608;7.216;2023-07-29T14:06:59;4.18;;;2.30;;
65835;SDS011;52595;51.608;7.216;2023-07-29T14:09:24;4.55;;;2.17;;
65835;SDS011;52595;51.608;7.216;2023-07-29T14:11:50;10.40;;;3.33;;
65835;SDS011;52595;51.608;7.216;2023-07-29T14:14:16;10.20;;;3.53;;
65835;SDS011;52595;51.608;7.216;2023-07-29T14:16:41;7.75;;;3.40;;
65835;SDS011;52595;51.608;7.216;2023-07-29T14:19:07;6.38;;;3.72;;
65835;SDS011;52595;51.608;7.216;2023-07-29T14:21:32;9.30;;;4.35;;
65835;SDS011;52595;51.608;7.216;2023-07-29T14:23:57;13.60;;;4.32;;
65835;SDS011;52595;51.608;7.216;2023-07-29T14:26:23;5.90;;;4.03;;
65835;SDS011;52595;51.608;7.216;2023-07-29T14:28:48;7.32;;;4.47;;
65835;SDS011;52595;51.608;7.216;2023-07-29T14:31:15;9.27;;;4.57;;
65835;SDS011;52595;51.608;7.216;2023-07-29T14:33:41;8.82;;;3.90;;
65835;SDS011;52595;51.608;7.216;2023-07-29T14:36:07;10.82;;;3.88;;
65835;SDS011;52595;51.608;7.216;2023-07-29T14:38:33;8.25;;;4.10;;
65835;SDS011;52595;51.608;7.216;2023-07-29T14:40:59;5.25;;;3.78;;
65835;SDS011;52595;51.608;7.216;2023-07-29T14:43:25;8.23;;;3.40;;
65835;SDS011;52595;51.608;7.216;2023-07-29T14:45:50;4.25;;;2.45;;
65835;SDS011;52595;51.608;7.216;2023-07-29T14:48:16;5.10;;;3.00;;
65835;SDS011;52595;51.608;7.216;2023-07-29T14:50:41;5.57;;;2.90;;
65835;SDS011;52595;51.608;7.216;2023-07-29T14:53:08;4.78;;;2.25;;
65835;SDS011;52595;51.608;7.216;2023-07-29T14:55:34;3.08;;;2.10;;
65835;SDS011;52595;51.608;7.216;2023-07-29T14:57:59;3.67;;;2.10;;
65835;SDS011;52595;51.608;7.216;2023-07-29T15:00:25;2.83;;;1.77;;
65835;SDS011;52595;51.608;7.216;2023-07-29T15:02:50;2.83;;;1.50;;
65835;SDS011;52595;51.608;7.216;2023-07-29T15:05:18;3.42;;;1.83;;
65835;SDS011;52595;51.608;7.216;2023-07-29T15:07:44;2.15;;;1.77;;
65835;SDS011;52595;51.608;7.216;2023-07-29T15:10:09;2.28;;;1.77;;
65835;SDS011;52595;51.608;7.216;2023-07-29T15:12:35;2.78;;;1.77;;
65835;SDS011;52595;51.608;7.216;2023-07-29T15:15:00;3.22;;;1.70;;